Time;durP1;ratioP1;P1;durP2;ratioP2;P2;SDS_P1;SDS_P2;PMS_P1;PMS_P2;Temp;Humidity;BMP_temperature;BMP_pressure;BME280_temperature;BME280_humidity;BME280_pressure;Samples;Min_cycle;Max_cycle;Signal;HPM_P1;HPM_P2
2021/03/24 00:01:02;;;;;;;;;;;;;;;-0.36;72.78;95607.97;1785617;80;20154;-62
2021/03/24 00:03:29;;;;;;;;;;;;;;;-0.31;72.42;95607.66;1785416;80;20146;-62
2021/03/24 00:05:57;;;;;;;;;;;;;;;-0.22;72.22;95606.58;1785190;80;20136;-62
2021/03/24 00:08:26;;;;;;;;;;;;;;;-0.15;71.87;95606.31;1785874;80;20162;-62
2021/03/24 00:10:54;;;;;;;;;;;;;;;-0.14;71.33;95610.64;1785490;80;20134;-62
2021/03/24 00:13:21;;;;;;;;;;;;;;;-0.18;71.46;95606.22;1785583;80;20135;-62
2021/03/24 00:15:49;;;;;;;;;;;;;;;-0.30;72.34;95612.02;1785571;80;20154;-62
2021/03/24 00:18:18;;;;;;;;;;;;;;;-0.42;72.62;95613.02;1785358;80;20207;-63
2021/03/24 00:20:47;;;;;;;;;;;;;;;-0.47;72.83;95618.52;1759884;80;20159;-62
2021/03/24 00:23:14;;;;;;;;;;;;;;;-0.49;72.00;95608.52;1785646;80;20143;-62
2021/03/24 00:25:42;;;;;;;;;;;;;;;-0.52;72.30;95609.33;1785659;80;20150;-62
2021/03/24 00:28:12;;;;;;;;;;;;;;;-0.55;71.04;95604.08;1759713;80;20158;-63
2021/03/24 00:30:42;;;;;;;;;;;;;;;-0.54;70.61;95603.22;1785363;80;20450;-62
2021/03/24 00:33:12;;;;;;;;;;;;;;;-0.49;70.59;95610.69;1785643;80;20138;-62
2021/03/24 00:35:42;;;;;;;;;;;;;;;-0.52;68.81;95615.80;1785486;80;20150;-62
2021/03/24 00:38:10;;;;;;;;;;;;;;;-0.56;69.47;95619.58;1785495;80;20162;-63
2021/03/24 00:40:41;;;;;;;;;;;;;;;-0.60;69.80;95617.34;1785304;80;20162;-62
2021/03/24 00:43:08;;;;;;;;;;;;;;;-0.61;69.88;95615.58;1784760;80;20158;-63
2021/03/24 00:45:38;;;;;;;;;;;;;;;-0.64;69.64;95612.05;1785351;80;20158;-62
2021/03/24 00:48:08;;;;;;;;;;;;;;;-0.71;69.35;95621.37;1785560;80;20142;-63
2021/03/24 00:50:36;;;;;;;;;;;;;;;-0.71;69.55;95615.76;1785438;80;20167;-63
2021/03/24 00:53:03;;;;;;;;;;;;;;;-0.70;68.88;95611.48;1785557;80;20459;-63
2021/03/24 00:55:31;;;;;;;;;;;;;;;-0.69;67.87;95623.58;1785519;80;20480;-63
2021/03/24 00:57:59;;;;;;;;;;;;;;;-0.73;68.03;95625.63;1785463;80;20159;-62
2021/03/24 01:00:30;;;;;;;;;;;;;;;-0.75;68.10;95628.63;1785232;80;20186;-63
2021/03/24 01:02:58;;;;;;;;;;;;;;;-0.69;68.33;95633.52;1785432;80;20439;-63
2021/03/24 01:05:26;;;;;;;;;;;;;;;-0.80;67.53;95630.22;1785505;80;20173;-63
2021/03/24 01:07:56;;;;;;;;;;;;;;;-0.97;68.36;95630.66;1759413;80;20146;-63
2021/03/24 01:10:28;;;;;;;;;;;;;;;-0.96;68.69;95632.42;1785544;80;20142;-63
2021/03/24 01:12:56;;;;;;;;;;;;;;;-0.98;68.80;95634.52;1785565;80;20435;-63
2021/03/24 01:15:25;;;;;;;;;;;;;;;-1.02;68.46;95635.26;1785442;80;20143;-63
2021/03/24 01:17:53;;;;;;;;;;;;;;;-1.06;68.44;95639.88;1785767;80;20138;-62
2021/03/24 01:20:26;;;;;;;;;;;;;;;-1.17;68.19;95639.19;1785709;80;20166;-62
2021/03/24 01:22:55;;;;;;;;;;;;;;;-1.24;68.68;95639.84;1785611;80;20154;-62
2021/03/24 01:25:23;;;;;;;;;;;;;;;-1.21;68.73;95630.89;1785625;80;20146;-63
2021/03/24 01:27:51;;;;;;;;;;;;;;;-1.17;67.88;95630.55;1785605;80;20142;-62
2021/03/24 01:30:22;;;;;;;;;;;;;;;-1.25;67.18;95634.22;1785420;80;20433;-63
2021/03/24 01:32:49;;;;;;;;;;;;;;;-1.25;67.72;95635.52;1785544;80;20134;-62
2021/03/24 01:35:17;;;;;;;;;;;;;;;-1.22;68.05;95639.48;1785390;80;20478;-63
2021/03/24 01:37:46;;;;;;;;;;;;;;;-1.29;68.12;95638.84;1785452;80;20158;-62
2021/03/24 01:40:17;;;;;;;;;;;;;;;-1.33;68.00;95636.60;1785435;80;20435;-63
2021/03/24 01:42:45;;;;;;;;;;;;;;;-1.35;68.27;95635.68;1785261;80;20135;-62
2021/03/24 01:45:19;;;;;;;;;;;;;;;-1.29;68.70;95637.55;1785458;80;20154;-63
2021/03/24 01:47:47;;;;;;;;;;;;;;;-1.33;69.08;95643.50;1785844;80;20197;-63
2021/03/24 01:50:24;;;;;;;;;;;;;;;-1.32;69.70;95642.23;1785424;80;20150;-63
2021/03/24 01:52:53;;;;;;;;;;;;;;;-1.23;69.51;95642.05;1785803;80;20437;-62
2021/03/24 01:55:21;;;;;;;;;;;;;;;-1.23;69.90;95635.57;1785549;80;20130;-63
2021/03/24 01:57:49;;;;;;;;;;;;;;;-1.22;69.64;95645.95;1785567;80;20155;-63
2021/03/24 02:00:33;;;;;;;;;;;;;;;-1.16;69.73;95644.84;1785537;80;20480;-63
2021/03/24 02:03:00;;;;;;;;;;;;;;;-1.07;69.20;95644.62;1785632;80;20155;-63
2021/03/24 02:05:27;;;;;;;;;;;;;;;-1.02;69.00;95645.20;1785453;80;20138;-62
2021/03/24 02:08:17;;;;;;;;;;;;;;;-1.11;70.14;95641.95;1785560;80;20139;-63
2021/03/24 02:10:51;;;;;;;;;;;;;;;-1.02;69.60;95642.60;1785590;80;20169;-62
2021/03/24 02:13:24;;;;;;;;;;;;;;;-0.98;69.20;95641.86;1785859;80;20163;-63
2021/03/24 02:15:57;;;;;;;;;;;;;;;-0.92;68.24;95646.31;1785374;80;20134;-63
2021/03/24 02:18:27;;;;;;;;;;;;;;;-0.83;68.79;95653.44;1785677;80;20142;-62
2021/03/24 02:20:58;;;;;;;;;;;;;;;-0.88;69.74;95649.45;1785550;80;20159;-62
2021/03/24 02:23:36;;;;;;;;;;;;;;;-0.85;69.18;95652.55;1783135;80;20167;-62
2021/03/24 02:26:33;;;;;;;;;;;;;;;-0.79;68.73;95653.98;1785832;80;20154;-63
2021/03/24 02:29:03;;;;;;;;;;;;;;;-0.71;68.30;95657.64;1785570;80;20166;-62
2021/03/24 02:31:33;;;;;;;;;;;;;;;-0.92;65.69;95657.97;1785560;80;20154;-63
2021/03/24 02:34:04;;;;;;;;;;;;;;;-0.95;65.44;95661.36;1785799;80;20142;-63
2021/03/24 02:36:32;;;;;;;;;;;;;;;-0.83;65.96;95662.50;1785065;80;20432;-63
2021/03/24 02:39:04;;;;;;;;;;;;;;;-0.81;65.68;95666.02;1785427;80;20436;-63
2021/03/24 02:41:31;;;;;;;;;;;;;;;-0.86;65.13;95668.48;1785099;80;20158;-63
2021/03/24 02:43:59;;;;;;;;;;;;;;;-0.86;65.91;95665.89;1785596;80;20174;-63
2021/03/24 02:46:28;;;;;;;;;;;;;;;-0.84;65.85;95672.42;1759701;80;20178;-63
2021/03/24 02:48:57;;;;;;;;;;;;;;;-0.81;66.08;95673.36;1785790;80;20130;-62
2021/03/24 02:51:25;;;;;;;;;;;;;;;-0.89;64.73;95673.59;1785745;80;20147;-62
2021/03/24 02:53:55;;;;;;;;;;;;;;;-0.93;65.69;95673.94;1783650;80;20158;-63
2021/03/24 02:56:22;;;;;;;;;;;;;;;-0.96;65.98;95681.63;1785503;80;20171;-63
2021/03/24 02:58:52;;;;;;;;;;;;;;;-0.94;65.73;95679.06;1785560;80;20159;-63
2021/03/24 03:01:26;;;;;;;;;;;;;;;-0.90;65.82;95683.08;1785525;80;20162;-63
2021/03/24 03:03:57;;;;;;;;;;;;;;;-1.00;66.02;95684.96;1785464;80;20146;-62
2021/03/24 03:06:27;;;;;;;;;;;;;;;-1.04;66.08;95691.30;1785684;80;20420;-63
2021/03/24 03:08:59;;;;;;;;;;;;;;;-1.24;66.72;95691.62;1785723;80;20150;-63
2021/03/24 03:11:48;;;;;;;;;;;;;;;-1.31;65.73;95697.06;1785730;80;20146;-62
2021/03/24 03:14:18;;;;;;;;;;;;;;;-1.37;65.63;95698.16;1785552;80;20142;-63
2021/03/24 03:16:49;;;;;;;;;;;;;;;-1.43;65.64;95707.48;1785511;80;20146;-63
2021/03/24 03:19:23;;;;;;;;;;;;;;;-1.43;65.81;95709.65;1785813;80;20194;-63
2021/03/24 03:21:53;;;;;;;;;;;;;;;-1.56;65.77;95711.00;1784588;80;20150;-62
2021/03/24 03:24:24;;;;;;;;;;;;;;;-1.58;66.48;95710.50;1784934;80;20150;-63
2021/03/24 03:26:54;;;;;;;;;;;;;;;-1.63;66.13;95712.06;1759576;80;20162;-63
2021/03/24 03:29:22;;;;;;;;;;;;;;;-1.66;65.92;95710.66;1785483;80;20147;-62
2021/03/24 03:31:51;;;;;;;;;;;;;;;-1.72;65.93;95723.42;1785487;80;20436;-63
2021/03/24 03:34:22;;;;;;;;;;;;;;;-1.72;66.45;95719.55;1759853;80;20419;-63
2021/03/24 03:36:52;;;;;;;;;;;;;;;-1.77;65.68;95722.85;1785771;80;20134;-63
2021/03/24 03:39:22;;;;;;;;;;;;;;;-1.91;65.86;95719.41;1785777;80;20130;-63
2021/03/24 03:41:50;;;;;;;;;;;;;;;-1.92;66.15;95721.09;1785462;80;20135;-63
2021/03/24 03:44:18;;;;;;;;;;;;;;;-1.90;65.64;95725.03;1785772;80;20166;-63
2021/03/24 03:46:52;;;;;;;;;;;;;;;-2.00;65.37;95719.98;1785745;80;20134;-62
2021/03/24 03:49:20;;;;;;;;;;;;;;;-2.05;65.78;95721.55;1785847;80;20142;-63
2021/03/24 03:52:10;;;;;;;;;;;;;;;-2.07;65.88;95712.86;1785500;80;20170;-63
2021/03/24 03:54:54;;;;;;;;;;;;;;;-2.13;66.07;95726.47;1783322;80;20435;-62
2021/03/24 03:57:37;;;;;;;;;;;;;;;-2.36;66.17;95724.86;1785448;80;20142;-62
2021/03/24 04:00:14;;;;;;;;;;;;;;;-2.51;66.44;95721.35;1785193;80;20135;-62
2021/03/24 04:02:56;;;;;;;;;;;;;;;-2.60;66.76;95721.91;1785489;80;20154;-63
2021/03/24 04:05:42;;;;;;;;;;;;;;;-2.64;68.32;95726.11;1778526;80;20154;-63
2021/03/24 04:08:21;;;;;;;;;;;;;;;-2.79;67.51;95732.04;1773409;80;20135;-63
2021/03/24 04:10:52;;;;;;;;;;;;;;;-2.90;67.31;95731.67;1777123;81;20139;-62
2021/03/24 04:13:21;;;;;;;;;;;;;;;-2.95;67.51;95734.51;1777070;81;20159;-63
2021/03/24 04:15:51;;;;;;;;;;;;;;;-3.10;68.00;95742.97;1777233;81;20131;-62
2021/03/24 04:18:24;;;;;;;;;;;;;;;-3.14;68.34;95743.70;1776867;81;20142;-63
2021/03/24 04:20:54;;;;;;;;;;;;;;;-3.14;68.43;95743.28;1776922;81;20445;-62
2021/03/24 04:23:25;;;;;;;;;;;;;;;-3.16;68.18;95749.22;1776943;81;20169;-62
2021/03/24 04:25:55;;;;;;;;;;;;;;;-3.26;68.20;95750.16;1777183;81;20131;-62
2021/03/24 04:28:25;;;;;;;;;;;;;;;-3.36;68.89;95757.52;1777121;81;20143;-62
2021/03/24 04:30:55;;;;;;;;;;;;;;;-3.35;69.88;95763.13;1777294;81;20559;-62
2021/03/24 04:33:22;;;;;;;;;;;;;;;-3.40;69.42;95763.37;1776656;80;20135;-63
2021/03/24 04:35:52;;;;;;;;;;;;;;;-3.43;69.05;95764.13;1777165;81;20146;-62
2021/03/24 04:38:32;;;;;;;;;;;;;;;-3.39;68.86;95782.79;1776951;81;20462;-62
2021/03/24 04:41:02;;;;;;;;;;;;;;;-3.47;68.94;95776.89;1776831;80;20460;-63
2021/03/24 04:43:31;;;;;;;;;;;;;;;-3.43;68.79;95782.19;1777209;81;20150;-63
2021/03/24 04:46:09;;;;;;;;;;;;;;;-3.46;68.64;95787.24;1776917;81;20420;-64
2021/03/24 04:48:40;;;;;;;;;;;;;;;-3.32;68.71;95786.07;1776937;81;20262;-63
2021/03/24 04:51:13;;;;;;;;;;;;;;;-3.29;69.69;95788.76;1776796;80;20452;-63
2021/03/24 04:53:47;;;;;;;;;;;;;;;-3.24;70.23;95787.64;1777189;81;20155;-63
2021/03/24 04:56:16;;;;;;;;;;;;;;;-3.21;69.86;95788.17;1776968;81;20170;-64
2021/03/24 04:58:52;;;;;;;;;;;;;;;-3.22;70.61;95791.59;1776942;81;20461;-64
2021/03/24 05:01:32;;;;;;;;;;;;;;;-3.26;71.12;95792.73;1776917;81;20452;-64
2021/03/24 05:04:12;;;;;;;;;;;;;;;-3.28;70.16;95798.28;1776860;80;20424;-64
2021/03/24 05:07:09;;;;;;;;;;;;;;;-3.30;69.75;95797.33;1774882;81;20158;-63
2021/03/24 05:09:37;;;;;;;;;;;;;;;-3.30;70.50;95797.33;1777051;81;20171;-63
2021/03/24 05:12:32;;;;;;;;;;;;;;;-3.30;70.04;95792.56;1777321;81;20146;-64
2021/03/24 05:15:12;;;;;;;;;;;;;;;-3.32;70.14;95801.97;1777139;81;20142;-63
2021/03/24 05:17:42;;;;;;;;;;;;;;;-3.26;70.65;95802.19;1777272;81;20155;-63
2021/03/24 05:20:14;;;;;;;;;;;;;;;-3.11;70.42;95801.87;1777287;81;20254;-64
2021/03/24 05:22:43;;;;;;;;;;;;;;;-2.95;70.33;95800.34;1775341;80;20158;-63
2021/03/24 05:25:28;;;;;;;;;;;;;;;-2.85;69.52;95805.02;1777270;81;20162;-63
2021/03/24 05:28:11;;;;;;;;;;;;;;;-2.68;69.30;95799.13;1776966;81;20155;-63
2021/03/24 05:30:43;;;;;;;;;;;;;;;-2.43;68.84;95798.70;1777306;81;20146;-64
2021/03/24 05:33:19;;;;;;;;;;;;;;;-2.29;67.88;95801.35;1776549;80;20154;-64
2021/03/24 05:35:59;;;;;;;;;;;;;;;-2.18;67.56;95806.88;1777308;81;20178;-63
2021/03/24 05:38:35;;;;;;;;;;;;;;;-2.06;66.44;95805.12;1777328;81;20135;-64
2021/03/24 05:41:30;;;;;;;;;;;;;;;-2.06;65.98;95802.53;1776991;81;20226;-63
2021/03/24 05:44:07;;;;;;;;;;;;;;;-2.03;65.03;95811.68;1777392;81;20242;-63
2021/03/24 05:46:39;;;;;;;;;;;;;;;-1.93;65.55;95802.52;1777087;81;20131;-64
2021/03/24 05:49:31;;;;;;;;;;;;;;;-1.92;64.81;95814.61;1775642;80;20146;-63
2021/03/24 05:52:09;;;;;;;;;;;;;;;-2.01;63.29;95816.07;1764445;81;20177;-65
2021/03/24 05:55:01;;;;;;;;;;;;;;;-1.81;63.52;95818.44;1762178;81;20187;-63
2021/03/24 05:57:38;;;;;;;;;;;;;;;-1.61;63.64;95817.36;1735193;83;20143;-62
2021/03/24 06:00:21;;;;;;;;;;;;;;;-1.50;63.97;95817.69;1715373;84;20160;-63
2021/03/24 06:02:52;;;;;;;;;;;;;;;-1.44;62.18;95817.86;1715163;84;20235;-63
2021/03/24 06:05:22;;;;;;;;;;;;;;;-1.35;61.27;95810.81;1716915;83;20160;-62
2021/03/24 06:08:09;;;;;;;;;;;;;;;-1.18;61.13;95823.86;1718401;83;20148;-63
2021/03/24 06:11:04;;;;;;;;;;;;;;;-1.07;59.99;95823.30;1709068;84;20164;-66
2021/03/24 06:14:07;;;;;;;;;;;;;;;-0.93;56.01;95824.59;1699085;84;20136;-65
2021/03/24 06:17:09;;;;;;;;;;;;;;;-0.77;56.76;95822.02;1698738;85;20411;-64
2021/03/24 06:19:47;;;;;;;;;;;;;;;-0.59;53.35;95825.53;1698770;85;20176;-64
2021/03/24 06:22:38;;;;;;;;;;;;;;;-0.51;50.45;95819.71;1698859;84;20429;-66
2021/03/24 06:25:33;;;;;;;;;;;;;;;-0.34;49.59;95824.06;1698750;85;20132;-67
2021/03/24 06:28:14;;;;;;;;;;;;;;;-0.24;51.06;95817.41;1683272;85;20163;-66
2021/03/24 06:30:54;;;;;;;;;;;;;;;-0.15;48.76;95826.75;1698830;84;20406;-67
2021/03/24 06:33:31;;;;;;;;;;;;;;;-0.07;47.69;95829.11;1698746;85;20137;-66
2021/03/24 06:36:21;;;;;;;;;;;;;;;-0.05;46.07;95827.44;1698841;84;20403;-64
2021/03/24 06:39:18;;;;;;;;;;;;;;;0.00;46.72;95828.86;1698630;85;20145;-66
2021/03/24 06:42:09;;;;;;;;;;;;;;;0.02;46.64;95831.05;1698784;84;20125;-64
2021/03/24 06:44:53;;;;;;;;;;;;;;;0.17;46.18;95829.27;1698838;85;20252;-64
2021/03/24 06:47:35;;;;;;;;;;;;;;;0.24;45.27;95831.61;1713174;83;20221;-63
2021/03/24 06:50:27;;;;;;;;;;;;;;;0.28;45.49;95833.42;1727622;83;20142;-62
2021/03/24 06:53:27;;;;;;;;;;;;;;;0.29;45.05;95839.95;1726777;83;20408;-65
2021/03/24 06:56:24;;;;;;;;;;;;;;;0.42;43.85;95838.53;1727204;83;20129;-63
2021/03/24 06:58:58;;;;;;;;;;;;;;;0.50;43.16;95843.91;1672707;85;20148;-63
2021/03/24 07:01:51;;;;;;;;;;;;;;;0.56;43.25;95850.56;1710752;83;20143;-62
2021/03/24 07:04:55;;;;;;;;;;;;;;;0.66;43.29;95844.75;1727389;82;20429;-64
2021/03/24 07:07:44;;;;;;;;;;;;;;;0.79;41.39;95844.61;1717062;83;20135;-64
2021/03/24 07:10:24;;;;;;;;;;;;;;;0.74;40.90;95843.62;1716846;84;20170;-62
2021/03/24 07:13:12;;;;;;;;;;;;;;;0.85;42.77;95843.01;1716849;83;20415;-63
2021/03/24 07:15:51;;;;;;;;;;;;;;;0.96;41.88;95845.88;1716925;84;20158;-64
2021/03/24 07:18:39;;;;;;;;;;;;;;;0.96;40.56;95843.27;1716840;84;20134;-64
2021/03/24 07:21:25;;;;;;;;;;;;;;;1.06;41.71;95848.25;1716746;84;20230;-63
2021/03/24 07:24:29;;;;;;;;;;;;;;;1.19;43.07;95857.20;1717108;84;20123;-64
2021/03/24 07:27:18;;;;;;;;;;;;;;;1.23;39.85;95847.30;1716768;83;20229;-62
2021/03/24 07:30:04;;;;;;;;;;;;;;;1.25;40.78;95850.81;1700082;82;20133;-63
2021/03/24 07:32:41;;;;;;;;;;;;;;;1.29;39.73;95853.95;1700406;84;20279;-63
2021/03/24 07:35:19;;;;;;;;;;;;;;;1.35;40.21;95854.49;1700368;84;20426;-64
2021/03/24 07:38:11;;;;;;;;;;;;;;;1.40;40.23;95852.43;1700791;84;20165;-63
2021/03/24 07:41:05;;;;;;;;;;;;;;;1.53;43.74;95854.86;1672428;84;20398;-63
2021/03/24 07:44:03;;;;;;;;;;;;;;;1.85;40.86;95860.70;1700622;84;20145;-62
2021/03/24 07:46:56;;;;;;;;;;;;;;;1.95;39.76;95853.95;1715788;82;20149;-65
2021/03/24 07:50:01;;;;;;;;;;;;;;;1.98;38.08;95856.61;1733421;82;20233;-64
2021/03/24 07:52:48;;;;;;;;;;;;;;;2.04;37.80;95866.24;1746989;82;20158;-65
2021/03/24 07:55:36;;;;;;;;;;;;;;;2.07;38.10;95861.13;1746766;82;20134;-62
2021/03/24 07:58:10;;;;;;;;;;;;;;;2.12;37.72;95862.95;1733966;82;20141;-63
2021/03/24 08:00:47;;;;;;;;;;;;;;;2.16;37.58;95862.57;1688368;85;20157;-63
2021/03/24 08:03:38;;;;;;;;;;;;;;;2.22;36.22;95867.00;1688120;84;20138;-63
2021/03/24 08:06:16;;;;;;;;;;;;;;;2.30;37.31;95868.04;1691508;84;20157;-63
2021/03/24 08:09:03;;;;;;;;;;;;;;;2.24;35.98;95871.81;1693365;84;20406;-63
2021/03/24 08:12:05;;;;;;;;;;;;;;;2.23;38.39;95872.68;1692435;84;20505;-63
2021/03/24 08:14:52;;;;;;;;;;;;;;;2.28;36.84;95871.91;1693622;84;20129;-63
2021/03/24 08:17:29;;;;;;;;;;;;;;;1.94;37.20;95868.70;1693312;84;20157;-63
2021/03/24 08:20:01;;;;;;;;;;;;;;;1.95;36.81;95873.47;1693456;84;20475;-64
2021/03/24 08:22:49;;;;;;;;;;;;;;;2.07;36.38;95876.30;1693151;84;20402;-64
2021/03/24 08:25:42;;;;;;;;;;;;;;;2.19;35.64;95869.13;1693371;84;20221;-64
2021/03/24 08:28:48;;;;;;;;;;;;;;;2.05;35.27;95865.42;1692791;84;20145;-64
2021/03/24 08:31:41;;;;;;;;;;;;;;;2.13;36.84;95869.90;1693340;84;20431;-63
2021/03/24 08:34:22;;;;;;;;;;;;;;;2.43;37.33;95862.19;1693387;85;20236;-65
2021/03/24 08:37:08;;;;;;;;;;;;;;;2.66;34.32;95866.47;1684032;84;20149;-63
2021/03/24 08:40:01;;;;;;;;;;;;;;;2.52;32.34;95863.66;1693175;84;20228;-65
2021/03/24 08:42:53;;;;;;;;;;;;;;;2.45;34.13;95860.92;1693369;84;20183;-64
2021/03/24 08:45:39;;;;;;;;;;;;;;;2.22;35.42;95861.40;1693578;84;20136;-64
2021/03/24 08:48:10;;;;;;;;;;;;;;;2.48;35.68;95862.27;1709456;83;20148;-64
2021/03/24 08:50:42;;;;;;;;;;;;;;;2.72;35.21;95857.87;1720495;83;20185;-63
2021/03/24 08:53:37;;;;;;;;;;;;;;;2.81;32.84;95856.72;1720600;83;20167;-62
2021/03/24 08:56:21;;;;;;;;;;;;;;;2.95;33.53;95856.52;1720615;83;20136;-63
2021/03/24 08:59:08;;;;;;;;;;;;;;;3.10;32.43;95854.96;1717130;82;20189;-62
2021/03/24 09:01:42;;;;;;;;;;;;;;;3.00;32.83;95860.50;1728165;82;20331;-62
2021/03/24 09:04:35;;;;;;;;;;;;;;;2.76;33.66;95862.28;1746629;82;20137;-62
2021/03/24 09:07:22;;;;;;;;;;;;;;;2.89;35.15;95857.70;1770748;81;20140;-63
2021/03/24 09:10:08;;;;;;;;;;;;;;;2.73;34.27;95860.94;1770901;81;20430;-63
2021/03/24 09:12:51;;;;;;;;;;;;;;;2.34;35.48;95869.83;1771181;81;20140;-63
2021/03/24 09:15:27;;;;;;;;;;;;;;;1.94;34.42;95866.49;1734567;82;20151;-63
2021/03/24 09:18:06;;;;;;;;;;;;;;;2.02;35.86;95864.94;1740308;82;20190;-61
2021/03/24 09:20:46;;;;;;;;;;;;;;;2.52;41.26;95853.23;1719749;82;20148;-62
2021/03/24 09:23:37;;;;;;;;;;;;;;;3.00;33.59;95857.89;1711852;84;20137;-62
2021/03/24 09:26:23;;;;;;;;;;;;;;;3.28;33.34;95860.45;1711906;84;20161;-62
2021/03/24 09:29:31;;;;;;;;;;;;;;;3.36;30.82;95852.30;1725589;82;20126;-62
2021/03/24 09:32:02;;;;;;;;;;;;;;;3.10;32.40;95863.69;1743437;82;20158;-63
2021/03/24 09:34:40;;;;;;;;;;;;;;;2.95;34.36;95859.12;1706682;82;20128;-62
2021/03/24 09:37:14;;;;;;;;;;;;;;;2.88;34.63;95866.83;1701565;83;20624;-65
2021/03/24 09:39:51;;;;;;;;;;;;;;;2.75;34.08;95867.93;1721040;83;20152;-69
2021/03/24 09:42:22;;;;;;;;;;;;;;;2.72;32.99;95865.69;1690594;85;20196;-66
2021/03/24 09:45:08;;;;;;;;;;;;;;;2.92;34.34;95863.39;1698632;84;20145;-70
2021/03/24 09:47:42;;;;;;;;;;;;;;;3.46;34.39;95861.13;1689185;83;20152;-76
2021/03/24 09:50:16;;;;;;;;;;;;;;;3.92;31.67;95851.23;1721930;83;20157;-67
2021/03/24 09:53:05;;;;;;;;;;;;;;;4.13;33.71;95851.89;1727674;83;20123;-77
2021/03/24 09:55:35;;;;;;;;;;;;;;;4.16;32.81;95852.35;1702896;83;20145;-72
2021/03/24 09:58:28;;;;;;;;;;;;;;;4.03;33.57;95854.86;1706457;83;20511;-67
2021/03/24 10:01:10;;;;;;;;;;;;;;;4.45;36.91;95860.48;1725843;83;20128;-66
2021/03/24 10:03:51;;;;;;;;;;;;;;;4.87;32.38;95854.75;1725944;83;20136;-66
2021/03/24 10:06:37;;;;;;;;;;;;;;;5.13;27.70;95856.23;1721006;83;20153;-66
2021/03/24 10:09:26;;;;;;;;;;;;;;;5.08;30.88;95855.33;1715379;84;20148;-66
2021/03/24 10:12:21;;;;;;;;;;;;;;;4.65;30.07;95856.31;1715430;84;20144;-66
2021/03/24 10:15:10;;;;;;;;;;;;;;;4.01;29.77;95846.13;1715337;83;20251;-65
2021/03/24 10:17:51;;;;;;;;;;;;;;;4.10;32.35;95845.34;1715599;84;20153;-66
2021/03/24 10:20:25;;;;;;;;;;;;;;;3.94;30.46;95846.05;1715247;84;20169;-65
2021/03/24 10:23:09;;;;;;;;;;;;;;;3.76;30.01;95858.46;1715458;84;20137;-66
2021/03/24 10:25:40;;;;;;;;;;;;;;;3.53;29.56;95848.62;1715245;83;20172;-66
2021/03/24 10:28:24;;;;;;;;;;;;;;;3.67;29.21;95834.42;1715628;84;20188;-65
2021/03/24 10:30:58;;;;;;;;;;;;;;;3.63;29.89;95843.09;1715387;83;20227;-66
2021/03/24 10:33:38;;;;;;;;;;;;;;;3.42;29.99;95857.58;1689242;84;20144;-66
2021/03/24 10:36:21;;;;;;;;;;;;;;;3.59;31.26;95851.73;1667668;86;20148;-65
2021/03/24 10:38:52;;;;;;;;;;;;;;;3.58;32.39;95850.86;1715488;84;20148;-65
2021/03/24 10:41:23;;;;;;;;;;;;;;;3.66;31.99;95854.86;1704160;83;20152;-65
2021/03/24 10:44:09;;;;;;;;;;;;;;;3.92;31.95;95840.80;1728291;83;20223;-66
2021/03/24 10:47:00;;;;;;;;;;;;;;;4.28;30.17;95844.23;1728408;83;20231;-65
2021/03/24 10:49:33;;;;;;;;;;;;;;;4.57;27.79;95846.67;1728813;83;20143;-65
2021/03/24 10:52:04;;;;;;;;;;;;;;;4.77;27.57;95836.81;1694914;83;20159;-66
2021/03/24 10:54:36;;;;;;;;;;;;;;;5.04;27.88;95835.27;1728397;83;20235;-66
2021/03/24 10:57:31;;;;;;;;;;;;;;;5.32;28.01;95832.83;1728794;83;20140;-63
2021/03/24 11:00:27;;;;;;;;;;;;;;;5.55;26.85;95823.77;1726893;83;20223;-63
2021/03/24 11:03:22;;;;;;;;;;;;;;;5.81;26.10;95818.19;1728443;83;20136;-63
2021/03/24 11:05:55;;;;;;;;;;;;;;;6.25;27.95;95821.86;1727755;83;20398;-63
2021/03/24 11:08:45;;;;;;;;;;;;;;;6.72;26.10;95811.38;1726075;83;20144;-63
2021/03/24 11:11:25;;;;;;;;;;;;;;;7.04;25.72;95807.00;1726122;83;20136;-63
2021/03/24 11:13:59;;;;;;;;;;;;;;;6.67;27.54;95801.33;1726356;83;20144;-63
2021/03/24 11:16:47;;;;;;;;;;;;;;;6.40;26.61;95808.77;1720637;83;20232;-64
2021/03/24 11:19:18;;;;;;;;;;;;;;;6.08;25.87;95816.57;1698369;85;20124;-63
2021/03/24 11:22:05;;;;;;;;;;;;;;;5.43;26.46;95820.66;1698896;85;20124;-63
2021/03/24 11:25:05;;;;;;;;;;;;;;;4.98;26.86;95819.08;1698565;85;20145;-63
2021/03/24 11:27:42;;;;;;;;;;;;;;;5.12;31.41;95819.63;1698725;84;20422;-63
2021/03/24 11:30:36;;;;;;;;;;;;;;;6.13;29.97;95805.66;1696697;84;20438;-63
2021/03/24 11:33:19;;;;;;;;;;;;;;;7.05;27.16;95791.23;1698613;85;20411;-64
2021/03/24 11:35:53;;;;;;;;;;;;;;;7.76;24.12;95786.66;1690888;84;20460;-63
2021/03/24 11:38:50;;;;;;;;;;;;;;;7.69;23.59;95792.81;1698737;84;20174;-63
2021/03/24 11:41:23;;;;;;;;;;;;;;;7.30;27.72;95791.19;1698679;84;20539;-63
2021/03/24 11:44:00;;;;;;;;;;;;;;;7.09;26.40;95785.56;1698754;84;20152;-64
2021/03/24 11:46:35;;;;;;;;;;;;;;;6.74;27.33;95791.72;1698840;84;20124;-64
2021/03/24 11:49:13;;;;;;;;;;;;;;;6.50;26.44;95798.72;1688203;85;20200;-64
2021/03/24 11:51:48;;;;;;;;;;;;;;;6.81;27.64;95800.03;1698814;85;20150;-64
2021/03/24 11:54:37;;;;;;;;;;;;;;;7.54;29.00;95792.43;1698608;85;20132;-64
2021/03/24 11:57:14;;;;;;;;;;;;;;;7.95;25.88;95784.80;1698825;85;20144;-64
2021/03/24 11:59:57;;;;;;;;;;;;;;;8.70;24.91;95785.22;1698558;84;20144;-64
2021/03/24 12:02:48;;;;;;;;;;;;;;;9.65;23.01;95777.66;1698804;85;20136;-64
2021/03/24 12:05:22;;;;;;;;;;;;;;;10.75;21.90;95773.94;1698628;85;20140;-64
2021/03/24 12:08:19;;;;;;;;;;;;;;;11.11;20.58;95772.88;1714578;83;20148;-64
2021/03/24 12:11:11;;;;;;;;;;;;;;;10.21;20.78;95773.42;1666680;84;20438;-64
2021/03/24 12:13:39;;;;;;;;;;;;;;;8.98;21.84;95783.22;1717261;84;20156;-64
2021/03/24 12:16:16;;;;;;;;;;;;;;;7.79;21.80;95788.39;1717118;84;20136;-64
2021/03/24 12:18:50;;;;;;;;;;;;;;;8.05;22.94;95787.38;1716782;84;20144;-64
2021/03/24 12:21:29;;;;;;;;;;;;;;;8.36;22.02;95784.97;1716964;84;20596;-63
2021/03/24 12:24:03;;;;;;;;;;;;;;;9.06;23.94;95770.39;1717054;84;20125;-64
2021/03/24 12:26:34;;;;;;;;;;;;;;;9.89;22.35;95760.67;1717139;84;20129;-64
2021/03/24 12:29:24;;;;;;;;;;;;;;;10.47;21.96;95769.09;1716028;84;20136;-64
2021/03/24 12:31:55;;;;;;;;;;;;;;;10.59;20.86;95769.36;1717522;83;20132;-64
2021/03/24 12:34:23;;;;;;;;;;;;;;;10.00;20.13;95767.98;1716665;84;20200;-64
2021/03/24 12:36:55;;;;;;;;;;;;;;;9.34;21.38;95778.45;1717075;84;20149;-64
2021/03/24 12:39:37;;;;;;;;;;;;;;;9.24;22.36;95777.68;1717151;83;20403;-64
2021/03/24 12:42:11;;;;;;;;;;;;;;;8.87;22.47;95787.27;1717132;84;20437;-63
2021/03/24 12:44:40;;;;;;;;;;;;;;;8.54;23.54;95786.66;1717134;83;20168;-64
2021/03/24 12:47:33;;;;;;;;;;;;;;;8.28;23.36;95791.18;1717181;84;20410;-64
2021/03/24 12:50:15;;;;;;;;;;;;;;;8.19;22.99;95792.99;1717051;83;20137;-64
2021/03/24 12:52:50;;;;;;;;;;;;;;;8.58;23.55;95788.81;1717517;83;20138;-64
2021/03/24 12:55:18;;;;;;;;;;;;;;;9.25;21.41;95772.86;1717322;83;20160;-64
2021/03/24 12:58:01;;;;;;;;;;;;;;;10.28;21.40;95768.94;1716886;83;20125;-64
2021/03/24 13:00:35;;;;;;;;;;;;;;;11.17;20.98;95764.87;1717044;84;20493;-64
2021/03/24 13:03:21;;;;;;;;;;;;;;;12.04;18.28;95752.56;1716998;83;20128;-64
2021/03/24 13:06:22;;;;;;;;;;;;;;;12.58;18.52;95751.81;1716993;84;20140;-64
2021/03/24 13:09:16;;;;;;;;;;;;;;;12.42;18.28;95750.83;1717182;84;20125;-64
2021/03/24 13:11:50;;;;;;;;;;;;;;;12.82;17.82;95734.44;1717147;83;20148;-64
2021/03/24 13:14:33;;;;;;;;;;;;;;;12.72;17.32;95736.45;1717282;84;20132;-64
2021/03/24 13:17:03;;;;;;;;;;;;;;;12.89;16.68;95730.28;1717098;83;20144;-65
2021/03/24 13:19:49;;;;;;;;;;;;;;;12.96;17.73;95734.52;1717391;84;20153;-64
2021/03/24 13:22:21;;;;;;;;;;;;;;;12.33;19.76;95745.77;1686546;84;20155;-64
2021/03/24 13:25:12;;;;;;;;;;;;;;;11.95;19.99;95761.17;1717082;83;20445;-64
2021/03/24 13:28:00;;;;;;;;;;;;;;;12.69;20.90;95744.47;1717309;84;20124;-64
2021/03/24 13:30:55;;;;;;;;;;;;;;;13.05;18.84;95744.45;1717295;83;20425;-64
2021/03/24 13:33:44;;;;;;;;;;;;;;;12.85;17.77;95747.17;1716957;84;20149;-64
2021/03/24 13:36:18;;;;;;;;;;;;;;;12.20;17.92;95755.76;1717225;84;20199;-64
2021/03/24 13:39:04;;;;;;;;;;;;;;;10.94;18.78;95766.59;1717270;84;20140;-64
2021/03/24 13:41:37;;;;;;;;;;;;;;;10.19;20.92;95775.20;1717334;84;20387;-64
2021/03/24 13:44:11;;;;;;;;;;;;;;;9.14;22.02;95776.90;1717358;84;20402;-64
2021/03/24 13:46:47;;;;;;;;;;;;;;;9.08;22.88;95778.29;1717132;83;20196;-64
2021/03/24 13:49:34;;;;;;;;;;;;;;;8.61;23.22;95780.44;1717335;83;20125;-64